05:27
Airports
History
Links
Donate
Help keep this website running!
PayPal
Bitcoin
Information on this page is community maintained and may be outdated or inaccurate and is intended for reference only or PC simulator navigating.
Always use approved charts for navigating.
EDOQ
OSCHATZ
OSCHATZ (EDOQ)
Oschatz, Sachsen, Germany (4758)
(C)
Lat/Lng:51° 17' 45.6" N / 13° 4' 42.11" E
51.296 / 13.078364
Elevation:501'ft 153mMSL
ID / ICAO:EDOQ
Runways:1
Longest:(08-26) 756.4m 2,482ft Grass
Controlled:Yes
Distance To
Airport ID:
Airport Radio Frequencies
INFO: 122.2
Nearby VORs <50NM
Nearby NDBs
Nearby WeatherUpdated 06-28-17 05:20 GMT
Nearby weather at EDDC, Dresden located 31.9 nautical miles from EDOQ
Altimeter: 29.62
Visibility: 6.2 statute miles
Wind: 8 knots (110°)
Temp: 17°c 63°f
Humidity: 88.0%

METAR: EDDC 280520Z 11008KT 9999 FEW006 SCT300 17/15 Q1003 TEMPO BKN006

(Powered by phpweather)
Runway 08 / 26
Dimensions:756.4 x 50m 2482' x 164'ft
Surface:Grass
Runway 08 [A]Runway 26 [B]
Heading:080°TH 260°TH
Lat:
Lng:
51° 17' 43.48"N
13° 4' 22.85"E
51° 17' 47.72"N
13° 5' 1.37"E
User Notes and Comments
Google Map
Nearby Airports
(U) RIESA GOHLIS 11.9 NM
EDAU E 90°
(U) FALKENBERG LONNEWITZ 18.6 NM
EDUF NNE 20°
(U) GROSSENHAIN 20.6 NM
EDAK E 87°
(C) TAUCHA 24.3 NM
EDCT WNW 286°
(C) BOEHLEN 31.2 NM
EDOE W 259°
(C) ROITZSCHJORA 31.8 NM
EDAW NW 307°
(C) Dresden 31.9 NM
EDDC (WX) ESE 110°
VFR Chart
Flight Planning at SkyVector.com